createdAt,value
2022-12-08T00:01:53.820Z,37.95
2022-12-08T00:04:21.014Z,38.07
2022-12-08T00:06:48.171Z,38.17
2022-12-08T00:09:20.070Z,38.14
2022-12-08T00:11:49.390Z,38.28
2022-12-08T00:14:16.589Z,38.63
2022-12-08T00:16:43.893Z,38.25
2022-12-08T00:19:11.192Z,38.46
2022-12-08T00:21:38.289Z,38.49
2022-12-08T00:24:05.830Z,38.20
2022-12-08T00:26:32.910Z,38.36
2022-12-08T00:29:01.489Z,38.30
2022-12-08T00:31:28.680Z,38.64
2022-12-08T00:33:56.290Z,38.65
2022-12-08T00:36:23.352Z,39.00
2022-12-08T00:38:50.472Z,38.83
2022-12-08T00:41:20.911Z,39.25
2022-12-08T00:43:47.989Z,39.09
2022-12-08T00:46:16.543Z,39.15
2022-12-08T00:48:43.650Z,39.15
2022-12-08T00:51:10.750Z,39.00
2022-12-08T00:53:37.851Z,39.24
2022-12-08T00:56:05.393Z,38.86
2022-12-08T00:58:32.454Z,38.93
2022-12-08T01:00:59.633Z,39.46
2022-12-08T01:03:28.342Z,38.70
2022-12-08T01:05:55.549Z,39.00
2022-12-08T01:08:22.701Z,38.52
2022-12-08T01:10:49.909Z,38.94
2022-12-08T01:13:17.030Z,38.87
2022-12-08T01:15:44.150Z,39.06
2022-12-08T01:18:11.248Z,39.27
2022-12-08T01:20:39.749Z,39.09
2022-12-08T01:23:06.850Z,39.33
2022-12-08T01:25:34.973Z,39.02
2022-12-08T01:28:02.030Z,38.87
2022-12-08T01:30:29.244Z,39.12
2022-12-08T01:32:57.490Z,39.17
2022-12-08T01:35:24.611Z,39.24
2022-12-08T01:37:53.213Z,39.51
2022-12-08T01:40:20.369Z,39.05
2022-12-08T01:42:47.539Z,39.14
2022-12-08T01:45:25.110Z,39.51
2022-12-08T01:47:56.947Z,39.01
2022-12-08T01:50:25.169Z,38.50
2022-12-08T01:52:57.611Z,38.63
2022-12-08T01:55:31.372Z,38.55
2022-12-08T01:58:08.069Z,38.27
2022-12-08T02:00:35.176Z,37.85
2022-12-08T02:03:04.936Z,38.38
2022-12-08T02:05:36.850Z,39.10
2022-12-08T02:08:08.965Z,39.43
2022-12-08T02:10:39.692Z,39.30
2022-12-08T02:13:11.329Z,39.40
2022-12-08T02:15:47.970Z,38.60
2022-12-08T02:18:37.432Z,42.86
2022-12-08T02:21:13.012Z,43.39
2022-12-08T02:23:54.275Z,42.20
2022-12-08T02:26:55.374Z,45.52
2022-12-08T02:30:01.066Z,45.08
2022-12-08T02:33:08.845Z,42.98
2022-12-08T02:35:46.316Z,43.09
2022-12-08T02:38:27.239Z,41.60
2022-12-08T02:41:13.597Z,42.34
2022-12-08T02:43:45.558Z,39.22
2022-12-08T02:46:20.188Z,42.59
2022-12-08T02:48:48.270Z,43.96
2022-12-08T02:51:16.879Z,44.44
2022-12-08T02:53:45.136Z,42.17
2022-12-08T02:56:27.897Z,42.04
2022-12-08T02:59:14.316Z,40.24
2022-12-08T03:02:10.160Z,42.27
2022-12-08T03:04:46.697Z,40.37
2022-12-08T03:07:25.160Z,39.31
2022-12-08T03:10:00.579Z,39.79
2022-12-08T03:12:36.126Z,39.09
2022-12-08T03:15:11.804Z,39.93
2022-12-08T03:17:46.087Z,40.57
2022-12-08T03:20:19.959Z,38.77
2022-12-08T03:22:52.900Z,38.71
2022-12-08T03:25:23.340Z,42.49
2022-12-08T03:27:52.440Z,39.79
2022-12-08T03:30:20.004Z,42.30
2022-12-08T03:32:54.980Z,42.32
2022-12-08T03:35:27.300Z,42.61
2022-12-08T03:38:04.859Z,40.86
2022-12-08T03:40:32.075Z,39.20
2022-12-08T03:42:59.280Z,39.42
2022-12-08T03:45:26.701Z,40.66
2022-12-08T03:47:53.759Z,38.58
2022-12-08T03:50:20.980Z,38.47
2022-12-08T03:52:48.100Z,38.81
2022-12-08T03:55:17.300Z,40.25
2022-12-08T03:57:44.706Z,41.54
2022-12-08T04:00:16.347Z,38.71
2022-12-08T04:02:43.691Z,40.40
2022-12-08T04:05:10.947Z,39.71
2022-12-08T04:07:38.124Z,40.64
2022-12-08T04:10:06.933Z,42.31
2022-12-08T04:12:35.800Z,40.31
2022-12-08T04:15:02.974Z,42.28
2022-12-08T04:17:30.022Z,43.55
2022-12-08T04:19:57.121Z,41.41
2022-12-08T04:22:24.241Z,40.10
2022-12-08T04:24:51.600Z,42.11
2022-12-08T04:27:18.880Z,41.29
2022-12-08T04:29:47.461Z,39.65
2022-12-08T04:32:14.680Z,41.34
2022-12-08T04:34:41.741Z,39.95
2022-12-08T04:37:08.900Z,41.39
2022-12-08T04:39:36.219Z,41.54
2022-12-08T04:42:03.420Z,42.74
2022-12-08T04:44:30.499Z,39.67
2022-12-08T04:46:59.206Z,42.60
2022-12-08T04:49:26.490Z,41.07
2022-12-08T04:51:53.521Z,41.08
2022-12-08T04:54:20.659Z,42.11
2022-12-08T04:56:47.840Z,41.47
2022-12-08T04:59:14.900Z,40.68
2022-12-08T05:01:42.142Z,42.17
2022-12-08T05:04:10.839Z,39.81
2022-12-08T05:06:37.921Z,40.70
2022-12-08T05:09:05.102Z,41.21
2022-12-08T05:11:32.204Z,41.11
2022-12-08T05:13:59.299Z,40.78
2022-12-08T05:16:26.565Z,39.00
2022-12-08T05:18:53.740Z,40.44
2022-12-08T05:21:22.321Z,40.78
2022-12-08T05:23:49.379Z,41.03
2022-12-08T05:26:16.539Z,39.98
2022-12-08T05:28:44.219Z,41.86
2022-12-08T05:31:12.789Z,41.53
2022-12-08T05:33:40.740Z,39.99
2022-12-08T05:36:09.040Z,40.52
2022-12-08T05:38:37.837Z,38.81
2022-12-08T05:41:06.319Z,39.96
2022-12-08T05:43:33.433Z,41.64
2022-12-08T05:46:00.619Z,41.22
2022-12-08T05:48:28.004Z,40.93
2022-12-08T05:50:56.322Z,41.07
2022-12-08T05:53:23.602Z,40.65
2022-12-08T05:55:52.212Z,41.14
2022-12-08T05:58:21.900Z,42.24
2022-12-08T06:00:50.002Z,39.50
2022-12-08T06:03:18.982Z,40.88
2022-12-08T06:05:47.860Z,39.58
2022-12-08T06:08:15.243Z,41.41
2022-12-08T06:10:44.601Z,40.49
2022-12-08T06:13:13.181Z,41.04
2022-12-08T06:15:41.600Z,43.02
2022-12-08T06:18:11.043Z,40.43
2022-12-08T06:20:38.360Z,40.82
2022-12-08T06:23:05.423Z,40.77
2022-12-08T06:25:32.577Z,41.81
2022-12-08T06:27:59.761Z,42.11
2022-12-08T06:30:28.481Z,41.43
2022-12-08T06:32:55.664Z,42.93
2022-12-08T06:35:22.867Z,43.31
2022-12-08T06:37:50.022Z,40.92
2022-12-08T06:40:17.405Z,42.54
2022-12-08T06:42:44.990Z,42.47
2022-12-08T06:45:14.023Z,41.58
2022-12-08T06:47:43.161Z,41.34
2022-12-08T06:50:12.094Z,42.83
2022-12-08T06:52:49.309Z,38.72
2022-12-08T06:55:50.760Z,39.75
2022-12-08T06:58:10.980Z,39.49
2022-12-08T07:00:38.321Z,38.27
2022-12-08T07:03:07.360Z,37.51
2022-12-08T07:05:34.561Z,38.75
2022-12-08T07:08:02.076Z,37.80
2022-12-08T07:10:30.080Z,40.10
2022-12-08T07:12:57.221Z,38.76
2022-12-08T07:15:24.321Z,39.65
2022-12-08T07:17:56.309Z,40.08
2022-12-08T07:20:28.356Z,38.95
2022-12-08T07:22:55.601Z,38.54
2022-12-08T07:25:23.046Z,38.09
2022-12-08T07:27:50.520Z,39.01
2022-12-08T07:30:17.840Z,37.72
2022-12-08T07:32:45.523Z,39.29
2022-12-08T07:35:13.241Z,38.57
2022-12-08T07:37:42.161Z,36.24
2022-12-08T07:40:11.140Z,35.80
2022-12-08T07:42:38.224Z,35.70
2022-12-08T07:45:07.060Z,36.60
2022-12-08T07:47:34.185Z,38.57
2022-12-08T07:50:01.332Z,36.74
2022-12-08T07:52:28.541Z,36.40
2022-12-08T07:54:57.122Z,37.53
2022-12-08T07:57:24.223Z,39.20
2022-12-08T07:59:51.260Z,38.42
2022-12-08T08:02:26.939Z,38.97
2022-12-08T08:04:54.477Z,41.62
2022-12-08T08:07:22.063Z,39.28
2022-12-08T08:09:49.271Z,39.97
2022-12-08T08:12:33.517Z,40.05
2022-12-08T08:15:01.944Z,40.26
2022-12-08T08:17:29.714Z,39.74
2022-12-08T08:19:57.517Z,39.39
2022-12-08T08:22:25.514Z,39.00
2022-12-08T08:24:53.255Z,40.18
2022-12-08T08:27:21.852Z,39.57
2022-12-08T08:29:48.893Z,37.92
2022-12-08T08:32:16.010Z,38.93
2022-12-08T08:34:43.989Z,39.72
2022-12-08T08:37:11.293Z,39.42
2022-12-08T08:39:38.571Z,39.98
2022-12-08T08:42:05.913Z,52.01
2022-12-08T08:44:34.512Z,42.18
2022-12-08T08:47:01.650Z,41.16
2022-12-08T08:49:28.873Z,41.31
2022-12-08T08:51:56.052Z,40.17
2022-12-08T08:54:23.193Z,39.66
2022-12-08T08:56:50.417Z,34.98
2022-12-08T08:59:17.510Z,35.57
2022-12-08T09:01:46.548Z,33.88
2022-12-08T09:04:13.845Z,34.15
2022-12-08T09:06:41.063Z,35.46
2022-12-08T09:09:08.250Z,35.00
2022-12-08T09:11:35.470Z,36.70
2022-12-08T09:14:02.790Z,39.45
2022-12-08T09:16:30.302Z,38.88
2022-12-08T09:18:59.073Z,38.94
2022-12-08T09:21:26.830Z,38.77
2022-12-08T09:23:56.774Z,39.46
2022-12-08T09:26:25.270Z,39.23
2022-12-08T09:28:54.310Z,39.42
2022-12-08T09:31:23.003Z,40.32
2022-12-08T09:33:51.151Z,40.11
2022-12-08T09:36:20.631Z,40.21
2022-12-08T09:38:48.155Z,40.50
2022-12-08T09:41:20.958Z,39.92
2022-12-08T09:44:07.258Z,39.64
2022-12-08T09:46:36.089Z,39.83
2022-12-08T09:49:11.658Z,40.39
2022-12-08T09:51:45.191Z,39.71
2022-12-08T09:54:20.440Z,39.69
2022-12-08T09:56:52.344Z,40.56
2022-12-08T09:59:26.009Z,41.03
2022-12-08T10:01:54.951Z,40.37
2022-12-08T10:04:27.273Z,40.39
2022-12-08T10:07:04.108Z,40.36
2022-12-08T10:09:40.190Z,39.46
2022-12-08T10:12:20.078Z,39.62
2022-12-08T10:14:58.168Z,39.99
2022-12-08T10:17:30.828Z,39.51
2022-12-08T10:20:03.054Z,39.25
2022-12-08T10:22:38.749Z,39.66
2022-12-08T10:25:18.060Z,39.31
2022-12-08T10:27:49.516Z,39.93
2022-12-08T10:30:19.439Z,39.37
2022-12-08T10:32:50.479Z,40.66
2022-12-08T10:35:21.105Z,38.72
2022-12-08T10:37:58.161Z,39.50
2022-12-08T10:40:29.216Z,39.66
2022-12-08T10:42:59.465Z,39.12
2022-12-08T10:45:30.475Z,40.26
2022-12-08T10:48:02.147Z,38.86
2022-12-08T10:50:33.049Z,38.69
2022-12-08T10:53:11.461Z,39.63
2022-12-08T10:55:43.193Z,39.27
2022-12-08T10:58:32.167Z,39.51
2022-12-08T11:01:05.424Z,39.82
2022-12-08T11:03:37.790Z,38.97
2022-12-08T11:06:15.171Z,39.11
2022-12-08T11:08:55.830Z,39.29
2022-12-08T11:11:38.820Z,38.60
2022-12-08T11:14:08.702Z,38.37
2022-12-08T11:16:36.648Z,37.66
2022-12-08T11:19:05.667Z,37.95
2022-12-08T11:21:38.068Z,38.87
2022-12-08T11:24:23.008Z,37.69
2022-12-08T11:26:54.268Z,39.02
2022-12-08T11:29:22.162Z,38.34
2022-12-08T11:31:55.198Z,36.83
2022-12-08T11:34:34.556Z,36.71
2022-12-08T11:37:05.207Z,36.89
2022-12-08T11:39:44.417Z,38.29
2022-12-08T11:42:20.573Z,37.06
2022-12-08T11:44:56.752Z,37.56
2022-12-08T11:47:30.862Z,36.53
2022-12-08T11:50:16.643Z,34.81
2022-12-08T11:52:50.928Z,35.35
2022-12-08T11:55:37.057Z,35.10
2022-12-08T11:58:18.870Z,34.58
2022-12-08T12:00:46.646Z,36.03
2022-12-08T12:03:25.340Z,34.33
2022-12-08T12:06:38.286Z,34.91
2022-12-08T12:09:16.853Z,33.87
2022-12-08T12:12:01.926Z,34.15
2022-12-08T12:14:55.086Z,34.28
2022-12-08T12:17:40.175Z,35.65
2022-12-08T12:20:17.925Z,35.70
2022-12-08T12:22:51.846Z,36.04
2022-12-08T12:25:23.047Z,36.02
2022-12-08T12:27:57.525Z,36.00
2022-12-08T12:30:27.855Z,35.17
2022-12-08T12:32:59.374Z,35.39
2022-12-08T12:35:34.504Z,33.95
2022-12-08T12:38:08.106Z,34.85
2022-12-08T12:40:42.268Z,34.92
2022-12-08T12:43:30.054Z,34.64
2022-12-08T12:46:33.599Z,35.03
2022-12-08T12:49:34.083Z,35.94
2022-12-08T12:52:01.382Z,35.78
2022-12-08T12:54:29.481Z,35.03
2022-12-08T12:57:15.942Z,40.84
2022-12-08T12:59:53.229Z,31.11
2022-12-08T13:02:26.213Z,32.04
2022-12-08T13:05:02.166Z,32.76
2022-12-08T13:07:33.193Z,32.59
2022-12-08T13:10:11.283Z,33.22
2022-12-08T13:12:38.656Z,32.92
2022-12-08T13:15:18.423Z,34.01
2022-12-08T13:17:49.333Z,35.21
2022-12-08T13:20:22.322Z,35.39
2022-12-08T13:23:25.144Z,35.84
2022-12-08T13:26:20.923Z,35.94
2022-12-08T13:29:17.575Z,34.92
2022-12-08T13:31:51.230Z,35.59
2022-12-08T13:34:36.784Z,35.47
2022-12-08T13:37:22.238Z,35.44
2022-12-08T13:39:53.898Z,35.98
2022-12-08T13:42:30.662Z,35.31
2022-12-08T13:45:22.292Z,35.05
2022-12-08T13:48:22.120Z,34.70
2022-12-08T13:52:47.980Z,35.26
2022-12-08T13:57:05.124Z,33.68
2022-12-08T13:59:33.402Z,33.94
2022-12-08T14:02:05.622Z,34.92
2022-12-08T14:04:54.437Z,35.72
2022-12-08T14:07:21.703Z,35.64
2022-12-08T14:09:49.703Z,36.09
2022-12-08T14:12:22.065Z,36.51
2022-12-08T14:15:08.323Z,36.40
2022-12-08T14:17:35.643Z,36.96
2022-12-08T14:20:23.343Z,35.86
2022-12-08T14:22:52.545Z,34.33
2022-12-08T14:25:20.607Z,34.70
2022-12-08T14:27:49.160Z,35.33
2022-12-08T14:30:21.086Z,36.68
2022-12-08T14:32:50.783Z,36.73
2022-12-08T14:35:24.485Z,37.04
2022-12-08T14:37:56.495Z,37.36
2022-12-08T14:40:28.142Z,37.43
2022-12-08T14:43:13.444Z,37.05
2022-12-08T14:45:49.064Z,38.11
2022-12-08T14:48:23.467Z,38.05
2022-12-08T14:51:04.566Z,38.31
2022-12-08T14:53:40.501Z,38.03
2022-12-08T14:56:16.548Z,38.46
2022-12-08T14:58:43.988Z,38.20
2022-12-08T15:01:15.362Z,38.15
2022-12-08T15:03:50.436Z,38.14
2022-12-08T15:06:21.477Z,36.23
2022-12-08T15:08:55.184Z,37.62
2022-12-08T15:11:31.439Z,38.18
2022-12-08T15:13:59.427Z,38.00
2022-12-08T15:16:30.506Z,37.88
2022-12-08T15:19:17.745Z,37.32
2022-12-08T15:21:47.729Z,37.17
2022-12-08T15:24:16.565Z,37.04
2022-12-08T15:26:47.523Z,37.05
2022-12-08T15:29:21.264Z,36.51
2022-12-08T15:31:48.944Z,36.76
2022-12-08T15:34:16.202Z,36.49
2022-12-08T15:36:43.383Z,37.01
2022-12-08T15:39:29.023Z,37.40
2022-12-08T15:41:56.182Z,37.09
2022-12-08T15:44:23.384Z,36.24
2022-12-08T15:46:51.483Z,36.68
2022-12-08T15:49:21.382Z,36.31
2022-12-08T15:51:49.422Z,36.88
2022-12-08T15:54:18.427Z,37.88
2022-12-08T15:57:17.847Z,37.58
2022-12-08T15:59:37.054Z,38.40
2022-12-08T16:02:04.360Z,37.58
2022-12-08T16:07:25.071Z,38.45
2022-12-08T16:09:55.353Z,37.86
2022-12-08T16:12:24.967Z,37.90
2022-12-08T16:17:40.882Z,37.96
2022-12-08T16:20:13.468Z,38.28
2022-12-08T16:22:54.532Z,38.08
2022-12-08T16:25:46.299Z,38.10
2022-12-08T16:28:52.254Z,38.25
2022-12-08T16:31:07.569Z,38.20
2022-12-08T16:33:38.083Z,38.17
2022-12-08T16:36:05.642Z,38.35
2022-12-08T16:38:35.146Z,38.11
2022-12-08T16:41:04.474Z,38.25
2022-12-08T16:43:32.558Z,38.05
2022-12-08T16:46:00.221Z,38.67
2022-12-08T16:48:27.703Z,39.11
2022-12-08T16:50:54.939Z,38.85
2022-12-08T16:53:23.096Z,39.18
2022-12-08T16:55:51.044Z,39.27
2022-12-08T16:58:19.802Z,39.24
2022-12-08T17:00:47.096Z,39.13
2022-12-08T17:03:15.881Z,38.96
2022-12-08T17:05:43.623Z,39.06
2022-12-08T17:08:10.940Z,39.34
2022-12-08T17:10:40.185Z,39.43
2022-12-08T17:13:08.761Z,39.19
2022-12-08T17:15:37.395Z,39.68
2022-12-08T17:18:05.525Z,39.33
2022-12-08T17:20:32.763Z,39.46
2022-12-08T17:22:59.922Z,39.37
2022-12-08T17:25:27.626Z,39.12
2022-12-08T17:27:55.243Z,39.59
2022-12-08T17:30:22.383Z,38.85
2022-12-08T17:32:51.386Z,39.23
2022-12-08T17:35:18.982Z,39.39
2022-12-08T17:37:46.202Z,39.56
2022-12-08T17:40:13.583Z,39.77
2022-12-08T17:42:40.869Z,39.38
2022-12-08T17:45:09.163Z,39.30
2022-12-08T17:47:37.122Z,39.61
2022-12-08T17:50:08.678Z,39.87
2022-12-08T17:52:36.907Z,40.35
2022-12-08T17:55:05.001Z,40.30
2022-12-08T17:57:32.323Z,39.78
2022-12-08T17:59:59.396Z,39.65
2022-12-08T18:02:26.683Z,39.70
2022-12-08T18:04:53.996Z,39.66
2022-12-08T18:07:22.596Z,39.58
2022-12-08T18:09:49.837Z,38.70
2022-12-08T18:12:22.258Z,39.17
2022-12-08T18:14:51.036Z,39.30
2022-12-08T18:17:18.361Z,39.43
2022-12-08T18:19:46.537Z,39.04
2022-12-08T18:22:13.738Z,39.16
2022-12-08T18:24:43.741Z,39.11
2022-12-08T18:27:10.877Z,39.61
2022-12-08T18:29:38.157Z,38.75
2022-12-08T18:32:05.402Z,38.93
2022-12-08T18:34:32.611Z,39.27
2022-12-08T18:36:59.833Z,39.06
2022-12-08T18:39:31.699Z,39.40
2022-12-08T18:42:01.098Z,39.21
2022-12-08T18:44:29.336Z,39.09
2022-12-08T18:46:56.961Z,38.77
2022-12-08T18:49:24.270Z,38.89
2022-12-08T18:51:51.618Z,39.07
2022-12-08T18:54:21.982Z,39.56
2022-12-08T18:56:51.572Z,39.16
2022-12-08T18:59:20.173Z,39.14
2022-12-08T19:01:47.275Z,39.86
2022-12-08T19:04:31.233Z,39.50
2022-12-08T19:07:00.817Z,39.70
2022-12-08T19:09:28.173Z,39.77
2022-12-08T19:11:56.071Z,39.44
2022-12-08T19:14:28.193Z,39.43
2022-12-08T19:16:56.668Z,39.01
2022-12-08T19:19:23.918Z,39.66
2022-12-08T19:21:51.073Z,39.06
2022-12-08T19:24:18.815Z,39.45
2022-12-08T19:26:46.413Z,39.66
2022-12-08T19:29:14.392Z,39.44
2022-12-08T19:31:43.117Z,39.39
2022-12-08T19:34:11.979Z,38.78
2022-12-08T19:36:39.339Z,38.08
2022-12-08T19:39:06.694Z,37.81
2022-12-08T19:41:35.970Z,37.26
2022-12-08T19:44:03.185Z,37.43
2022-12-08T19:46:32.568Z,37.40
2022-12-08T19:49:03.360Z,37.14
2022-12-08T19:51:30.660Z,37.38
2022-12-08T19:53:57.809Z,36.76
2022-12-08T19:56:24.940Z,37.14
2022-12-08T19:58:52.901Z,60.00
2022-12-08T20:01:20.177Z,40.80
2022-12-08T20:03:47.464Z,34.39
2022-12-08T20:06:19.018Z,30.14
2022-12-08T20:08:50.354Z,30.93
2022-12-08T20:11:19.380Z,32.14
2022-12-08T20:13:46.689Z,32.09
2022-12-08T20:16:15.766Z,33.83
2022-12-08T20:18:43.751Z,37.27
2022-12-08T20:21:12.610Z,34.74
2022-12-08T20:23:41.388Z,34.60
2022-12-08T20:26:12.000Z,35.23
2022-12-08T20:28:39.740Z,35.84
2022-12-08T20:31:07.075Z,35.66
2022-12-08T20:33:34.531Z,36.35
2022-12-08T20:36:05.143Z,36.50
2022-12-08T20:38:32.352Z,36.30
2022-12-08T20:41:01.059Z,36.39
2022-12-08T20:43:28.742Z,36.36
2022-12-08T20:45:55.905Z,36.47
2022-12-08T20:48:23.065Z,37.11
2022-12-08T20:50:51.069Z,36.85
2022-12-08T20:53:18.437Z,37.05
2022-12-08T20:55:45.733Z,37.59
2022-12-08T20:58:14.466Z,37.13
2022-12-08T21:00:42.634Z,37.09
2022-12-08T21:03:09.994Z,37.13
2022-12-08T21:05:37.694Z,37.16
2022-12-08T21:08:05.595Z,37.83
2022-12-08T21:10:36.791Z,37.24
2022-12-08T21:13:06.493Z,37.30
2022-12-08T21:15:35.646Z,37.37
2022-12-08T21:18:03.058Z,37.81
2022-12-08T21:20:30.469Z,38.61
2022-12-08T21:22:57.902Z,39.55
2022-12-08T21:25:25.265Z,39.37
2022-12-08T21:27:52.614Z,38.56
2022-12-08T21:30:20.276Z,38.30
2022-12-08T21:32:49.059Z,38.81
2022-12-08T21:35:16.744Z,38.55
2022-12-08T21:37:43.909Z,38.61
2022-12-08T21:40:13.192Z,38.31
2022-12-08T21:42:40.650Z,38.29
2022-12-08T21:45:10.048Z,38.90
2022-12-08T21:47:37.703Z,38.56
2022-12-08T21:50:09.312Z,38.43
2022-12-08T21:52:38.543Z,39.98
2022-12-08T21:55:07.622Z,39.41
2022-12-08T21:57:35.317Z,39.37
2022-12-08T22:00:02.644Z,39.07
2022-12-08T22:02:29.977Z,39.01
2022-12-08T22:04:57.543Z,39.64
2022-12-08T22:07:26.624Z,39.84
2022-12-08T22:09:54.216Z,38.87
2022-12-08T22:12:21.531Z,39.79
2022-12-08T22:14:48.640Z,39.26
2022-12-08T22:17:15.925Z,39.58
2022-12-08T22:19:43.659Z,39.90
2022-12-08T22:22:10.956Z,40.33
2022-12-08T22:24:39.787Z,41.05
2022-12-08T22:27:07.107Z,41.50
2022-12-08T22:29:34.475Z,42.12
2022-12-08T22:32:01.669Z,42.92
2022-12-08T22:34:29.082Z,42.41
2022-12-08T22:36:56.305Z,43.04
2022-12-08T22:39:23.437Z,43.16
2022-12-08T22:41:51.988Z,42.79
2022-12-08T22:44:19.138Z,42.99
2022-12-08T22:46:46.561Z,43.54
2022-12-08T22:49:13.962Z,43.95
2022-12-08T22:51:41.238Z,44.36
2022-12-08T22:54:10.753Z,44.66
2022-12-08T22:56:38.495Z,45.16
2022-12-08T22:59:07.911Z,44.84
2022-12-08T23:01:35.114Z,44.80
2022-12-08T23:04:03.120Z,44.80
2022-12-08T23:06:31.156Z,44.90
2022-12-08T23:08:59.409Z,44.91
2022-12-08T23:11:31.877Z,45.23
2022-12-08T23:13:59.721Z,45.36
2022-12-08T23:16:28.796Z,45.39
2022-12-08T23:18:56.540Z,45.62
2022-12-08T23:21:23.962Z,46.01
2022-12-08T23:23:51.091Z,45.98
2022-12-08T23:26:21.179Z,46.36
2022-12-08T23:28:48.728Z,46.26
2022-12-08T23:31:17.014Z,45.86
2022-12-08T23:33:46.264Z,45.93
2022-12-08T23:36:15.519Z,45.86
2022-12-08T23:38:43.298Z,46.34
2022-12-08T23:41:12.679Z,46.03
2022-12-08T23:43:44.359Z,46.25
2022-12-08T23:46:12.189Z,46.28
2022-12-08T23:48:40.543Z,46.28
2022-12-08T23:51:10.123Z,46.63
2022-12-08T23:53:37.782Z,46.76
2022-12-08T23:56:08.366Z,46.23
2022-12-08T23:58:36.645Z,46.31
